North Loup, Nebraska
Current Conditions -  °F | °C
As of 8:53 PM on Saturday 22 Nov 2014 (Local Time) from KODX Reporting Station
Clear Clear  
Wind Chill: 33°   Ceiling: Unl
Heat Index: 33°   Visibility: 10mi
Dew Point: 27°   Wind: 0mph
Humidity: 78%   Direction: NA
Pressure: 29.51"   Gusts: NA
Location:  41.5°N, 98.77°W
Report Text: KODX 230253Z AUTO 00000KT 10SM CLR 01/M03 A2951 RMK AO2 SLP013 T00061028 57003
Loading
Personal Weather Stations






























Interactive Weather Map New forecast layout! Learn more

10-Day Weather Forecast

Advertisements
Track Severe Weather on mobile